Latest Weather Observations for White Cliffs AWS

IDN60801

Issued at 9:02 am EDT Thursday 19 January 2017 (issued every 30 minutes, with the page automatically refreshed every 10 minutes)

About weather observations | Map of weather stations | Latest weather observations for NSW | Other Formats
Station Details ID: 046129 Name: WHITE CLIFFS AWS Lat: -30.85 Lon: 143.07 Height: 158.0 m
Data from the previous 72 hours. | See also: Recent months at White Cliffs AWS
Date/Time
EDT
Temp
°C
App
Temp
°C
Dew
Point
°C
Rel
Hum
%
Delta-T
°C
Wind Press
QNH
hPa
Press
MSL
hPa
Rain since
9am
mm
Dir  Spd
km/h
Gust
km/h
Spd
kts
Gust
kts
19/09:00am 28.7 25.4 10.8 33 10.3 SSE 19 20 10 11 1009.5 - -
19/08:30am 28.2 24.9 10.9 34 9.9 SSE 19 20 10 11 1009.5 1008.4 0.0
19/08:00am 27.9 24.9 10.6 34 9.9 SSE 17 20 9 11 1009.2 1008.1 0.0
19/07:30am 27.8 24.9 10.9 35 9.7 S 17 24 9 13 1008.9 1007.8 0.0
19/07:00am 27.6 24.5 11.6 37 9.3 S 19 24 10 13 1008.6 1007.5 0.0
19/06:30am 27.8 25.6 14.4 43 8.1 SSW 19 24 10 13 1008.4 1007.3 0.0
19/06:00am 26.9 29.4 22.5 77 3.0 SW 13 15 7 8 1008.3 1007.2 0.0
19/05:30am 26.7 29.4 22.8 79 2.7 SW 13 15 7 8 1008.3 1007.2 0.0
19/05:00am 26.4 29.4 22.7 80 2.5 WSW 11 13 6 7 1008.3 1007.2 0.0
19/04:30am 26.5 29.5 22.6 79 2.6 W 11 15 6 8 1008.4 1007.3 0.0
19/04:00am 26.5 29.2 22.8 80 2.5 WNW 13 17 7 9 1008.5 1007.4 0.0
19/03:30am 26.6 29.3 22.9 80 2.5 NW 13 15 7 8 1008.7 1007.6 0.0
19/03:00am 26.9 29.5 22.7 78 2.9 NW 13 17 7 9 1009.0 1007.9 0.0
19/02:30am 27.6 29.7 22.5 74 3.5 NW 15 24 8 13 1009.3 1008.2 0.0
19/02:00am 27.8 29.1 22.7 74 3.5 NNW 20 26 11 14 1009.6 1008.5 0.0
19/01:30am 28.2 28.7 22.7 72 3.8 NNW 24 32 13 17 1010.0 1008.8 0.0
19/01:00am 28.6 32.0 23.3 73 3.7 NW 11 15 6 8 1010.2 1009.1 0.0
19/12:30am 28.8 32.9 23.0 71 4.0 N 6 9 3 5 1010.6 1009.5 0.0
19/12:00am 28.8 31.2 23.0 71 4.0 N 15 19 8 10 1010.4 1009.3 0.0
 
Date/Time
EDT
Temp
°C
App
Temp
°C
Dew
Point
°C
Rel
Hum
%
Delta-T
°C
Wind Press
QNH
hPa
Press
MSL
hPa
Rain since
9am
mm
Dir  Spd
km/h
Gust
km/h
Spd
kts
Gust
kts
18/11:30pm 28.7 31.0 22.7 70 4.1 NNE 15 19 8 10 1009.7 1008.6 0.0
18/11:00pm 29.8 32.8 21.2 60 5.8 SW 7 11 4 6 1009.5 1008.4 0.0
18/10:30pm 29.8 31.9 21.7 61 5.5 SSW 13 15 7 8 1009.3 1008.2 0.0
18/10:00pm 29.4 33.0 22.4 66 4.8 SSW 7 11 4 6 1008.7 1007.6 0.0
18/09:30pm 29.2 32.7 22.2 66 4.8 WNW 7 9 4 5 1008.6 1007.5 0.0
18/09:00pm 29.4 31.3 21.4 62 5.4 NNW 13 17 7 9 1008.5 1007.4 0.0
18/08:30pm 29.3 31.8 21.8 64 5.1 WNW 11 17 6 9 1008.7 1007.6 0.0
18/08:00pm 28.3 29.0 22.3 70 4.1 NNW 22 26 12 14 1008.6 1007.5 0.0
18/07:30pm 30.2 29.2 22.6 63 5.2 NW 32 41 17 22 1009.3 1008.2 0.0
18/07:00pm 29.8 28.4 22.0 63 5.3 N 32 43 17 23 1008.5 1007.4 0.0
18/06:30pm 30.3 28.8 21.7 60 5.8 NNE 32 43 17 23 1007.5 1006.4 0.0
18/06:00pm 31.9 32.6 22.3 56 6.6 NNE 22 44 12 24 1007.4 1006.3 0.0
18/05:30pm 31.7 33.4 22.4 58 6.4 N 17 20 9 11 1007.1 1006.0 0.0
18/05:00pm 29.3 27.9 22.0 64 5.0 N 32 37 17 20 1007.2 1006.1 0.0
18/04:41pm 30.2 27.2 21.3 59 6.0 NW 39 61 21 33 1007.7 1006.6 0.0
18/04:39pm 30.5 27.5 21.3 58 6.2 NW 39 52 21 28 1008.0 1006.9 0.0
18/04:36pm 31.8 28.1 21.6 54 6.9 NW 43 61 23 33 1008.1 1007.0 0.0
18/04:30pm 32.9 28.5 20.4 47 8.4 WNW 44 61 24 33 1007.4 1006.3 0.0
18/04:24pm 34.0 32.4 20.7 45 9.0 WSW 30 59 16 32 1007.3 1006.2 0.0
18/04:23pm 35.2 33.5 19.9 40 10.3 WSW 28 59 15 32 1007.3 1006.2 0.0
18/04:21pm 38.6 37.3 19.9 33 12.6 SW 26 57 14 31 1007.2 1006.1 0.0
18/04:00pm 39.5 39.0 18.7 29 13.9 SSW 19 30 10 16 1007.0 1005.9 0.0
18/03:30pm 38.9 39.5 18.7 30 13.5 S 13 20 7 11 1007.2 1006.1 0.0
18/03:00pm 38.8 40.2 18.6 30 13.5 WSW 9 20 5 11 1008.2 1007.1 0.0
18/02:30pm 38.2 37.7 18.6 31 13.0 WSW 19 28 10 15 1008.7 1007.6 0.0
18/02:00pm 37.8 37.1 18.7 32 12.7 W 20 32 11 17 1009.1 1008.0 0.0
18/01:30pm 38.4 36.4 18.3 31 13.3 W 26 33 14 18 1009.4 1008.3 0.0
18/01:00pm 38.4 37.5 18.3 31 13.3 WSW 20 32 11 17 1009.5 1008.4 0.0
18/12:30pm 36.9 36.7 18.4 33 12.2 W 17 26 9 14 1010.0 1008.8 0.0
18/12:00pm 36.6 36.6 18.2 34 12.1 WSW 15 22 8 12 1010.2 1009.1 0.0
18/11:30am 36.2 36.1 18.7 35 11.6 W 17 28 9 15 1010.4 1009.3 0.0
18/11:00am 35.5 36.5 18.6 37 11.1 WNW 11 19 6 10 1010.4 1009.3 0.0
18/10:30am 34.6 34.8 18.6 38 10.5 NW 15 19 8 10 1010.5 1009.4 0.0
18/10:00am 34.0 34.4 18.9 41 10.0 NW 15 20 8 11 1010.4 1009.3 0.0
18/09:30am 32.6 33.2 20.2 48 8.3 NW 17 22 9 12 1010.6 1009.5 0.0
18/09:00am 32.9 33.9 18.7 43 9.3 WSW 11 15 6 8 1010.5 1009.4 0.0
18/08:30am 32.8 31.6 17.4 39 9.9 SW 20 28 11 15 1010.6 1009.5 0.0
18/08:00am 33.1 31.5 16.5 37 10.6 NW 20 26 11 14 1009.7 1008.6 0.0
18/07:30am 32.8 31.8 16.6 38 10.3 NW 17 20 9 11 1009.1 1008.0 0.0
18/07:00am 32.0 31.3 16.3 39 9.9 NW 15 19 8 10 1008.6 1007.5 0.0
18/06:30am 32.4 30.1 16.7 39 10.0 NW 24 33 13 18 1008.3 1007.2 0.0
18/06:00am 33.1 32.2 17.7 40 10.0 WNW 19 26 10 14 1008.1 1007.0 0.0
18/05:30am 32.8 32.7 17.8 40 9.7 NW 15 20 8 11 1007.4 1006.3 0.0
18/05:00am 33.5 33.6 18.4 40 9.9 NNW 15 17 8 9 1007.1 1006.0 0.0
18/04:30am 34.1 33.8 17.3 36 10.8 NNW 15 19 8 10 1007.0 1005.9 0.0
18/04:00am 34.5 32.9 16.4 34 11.6 NNW 20 26 11 14 1007.1 1006.0 0.0
18/03:30am 34.6 33.9 16.4 33 11.6 NNW 15 19 8 10 1006.9 1005.8 0.0
18/03:00am 34.8 33.2 16.6 33 11.7 NW 20 24 11 13 1007.2 1006.1 0.0
18/02:30am 34.4 34.0 17.2 36 11.1 NNW 15 19 8 10 1007.5 1006.4 0.0
18/02:00am 34.9 34.9 18.0 36 11.1 WNW 15 19 8 10 1007.4 1006.3 0.0
18/01:30am 35.5 34.7 17.2 33 11.8 WNW 17 20 9 11 1007.6 1006.5 0.0
18/01:00am 35.4 35.2 16.7 33 12.0 NW 13 15 7 8 1007.9 1006.8 0.0
18/12:30am 36.4 35.9 17.0 31 12.5 NW 15 17 8 9 1008.0 1006.9 0.0
18/12:00am 36.6 36.4 16.7 30 12.8 NW 13 15 7 8 1008.0 1006.9 0.0
 
Date/Time
EDT
Temp
°C
App
Temp
°C
Dew
Point
°C
Rel
Hum
%
Delta-T
°C
Wind Press
QNH
hPa
Press
MSL
hPa
Rain since
9am
mm
Dir  Spd
km/h
Gust
km/h
Spd
kts
Gust
kts
17/11:30pm 37.6 36.8 17.1 30 13.3 NNW 17 22 9 12 1008.0 1006.9 0.0
17/11:00pm 38.1 37.3 17.0 29 13.7 NNW 17 20 9 11 1008.0 1006.9 0.0
17/10:30pm 38.7 37.2 16.3 26 14.5 NNW 19 22 10 12 1007.8 1006.7 0.0
17/10:00pm 39.2 37.3 16.8 27 14.6 NNW 22 30 12 16 1007.6 1006.5 0.0
17/09:30pm 39.6 37.6 16.5 25 15.0 NNW 22 32 12 17 1007.2 1006.1 0.0
17/09:00pm 40.0 37.4 16.8 25 15.2 NNW 26 39 14 21 1006.9 1005.8 0.0
17/08:30pm 41.3 39.4 13.0 19 17.6 NW 15 20 8 11 1006.5 1005.4 0.0
17/08:00pm 42.0 40.0 12.8 18 18.2 NW 15 22 8 12 1006.3 1005.2 0.0
17/07:30pm 42.2 40.1 11.1 16 18.9 NW 13 19 7 10 1006.0 1004.9 0.0
17/07:00pm 43.2 39.9 11.0 15 19.7 NW 19 50 10 27 1005.9 1004.8 0.0
17/06:30pm 43.4 41.3 11.1 15 19.7 WNW 13 28 7 15 1005.9 1004.8 0.0
17/06:00pm 43.2 40.8 9.9 14 20.0 N 13 26 7 14 1006.1 1005.0 0.0
17/05:30pm 43.8 41.2 9.3 13 20.6 NNW 13 20 7 11 1006.4 1005.3 0.0
17/05:00pm 43.3 41.0 8.9 13 20.4 SW 11 26 6 14 1006.6 1005.5 0.0
17/04:30pm 43.9 40.6 8.2 12 21.0 NW 15 30 8 16 1006.9 1005.8 0.0
17/04:00pm 43.0 39.5 8.7 13 20.3 NW 17 28 9 15 1007.2 1006.1 0.0
17/03:30pm 43.0 38.3 6.2 11 21.0 NNW 20 30 11 16 1007.7 1006.6 0.0
17/03:00pm 42.1 36.5 5.6 11 20.6 NNW 24 35 13 19 1008.3 1007.2 0.0
17/02:30pm 42.2 38.4 5.6 11 20.6 NNE 15 30 8 16 1008.5 1007.4 0.0
17/02:00pm 42.3 37.2 4.3 10 21.0 NNW 20 41 11 22 1009.0 1007.9 0.0
17/01:30pm 42.7 37.9 4.6 10 21.2 NNW 19 30 10 16 1009.3 1008.2 0.0
17/01:00pm 41.1 37.3 6.0 12 19.8 NW 15 24 8 13 1009.6 1008.5 0.0
17/12:30pm 41.7 37.3 6.5 12 20.0 N 19 35 10 19 1009.9 1008.7 0.0
17/12:00pm 40.7 35.2 5.7 12 19.6 NNW 24 35 13 19 1010.2 1009.1 0.0
17/11:30am 39.7 33.9 6.1 13 18.8 NNW 26 35 14 19 1010.4 1009.3 0.0
17/11:00am 39.3 33.8 5.8 13 18.7 N 24 32 13 17 1010.5 1009.4 0.0
17/10:30am 38.6 33.8 7.4 15 17.7 N 22 28 12 15 1010.4 1009.3 0.0
17/10:00am 37.0 33.1 9.6 19 16.0 N 20 30 11 16 1010.5 1009.4 0.0
17/09:30am 35.7 32.5 12.0 24 14.2 N 20 26 11 14 1010.5 1009.4 0.0
17/09:00am 34.3 32.3 11.4 25 13.6 N 13 19 7 10 1010.4 1009.3 0.0
17/08:30am 32.9 30.4 10.9 26 12.9 N 15 20 8 11 1010.2 1009.1 0.0
17/08:00am 30.9 29.2 6.0 21 13.3 NNE 4 7 2 4 1010.0 1008.8 0.0
17/07:30am 28.0 25.2 2.2 19 12.7 SSE 6 7 3 4 1009.5 1008.4 0.0
17/07:00am 26.3 23.2 1.6 20 11.9 SSW 7 9 4 5 1009.0 1007.9 0.0
17/06:30am 26.7 23.9 3.2 22 11.7 SE 7 7 4 4 1008.8 1007.7 0.0
17/06:00am 26.5 23.6 2.4 21 11.8 SSE 7 9 4 5 1008.4 1007.3 0.0
17/05:30am 27.0 23.5 1.4 19 12.4 SE 9 13 5 7 1008.2 1007.1 0.0
17/05:00am 27.4 22.7 1.0 18 12.7 SSW 15 17 8 9 1007.8 1006.7 0.0
17/04:30am 27.8 23.7 2.1 19 12.6 S 13 13 7 7 1007.7 1006.6 0.0
17/04:00am 28.0 23.9 2.2 19 12.7 SSW 13 15 7 8 1007.8 1006.7 0.0
17/03:30am 28.6 24.6 2.7 19 12.9 S 13 15 7 8 1008.0 1006.9 0.0
17/03:00am 29.5 25.2 3.5 19 13.3 S 15 15 8 8 1008.3 1007.2 0.0
17/02:30am 29.9 26.3 5.2 21 13.0 S 13 13 7 7 1008.6 1007.5 0.0
17/02:00am 30.5 27.1 5.7 21 13.2 S 13 13 7 7 1008.6 1007.5 0.0
17/01:30am 30.9 27.7 6.7 22 13.1 SSW 13 15 7 8 1008.8 1007.7 0.0
17/01:00am 31.5 28.6 6.5 21 13.6 SSW 11 13 6 7 1009.0 1007.9 0.0
17/12:30am 31.9 29.1 6.9 21 13.7 S 11 13 6 7 1009.1 1008.0 0.0
17/12:00am 32.9 29.4 7.0 20 14.3 SSW 15 17 8 9 1009.1 1008.0 0.0
 
Date/Time
EDT
Temp
°C
App
Temp
°C
Dew
Point
°C
Rel
Hum
%
Delta-T
°C
Wind Press
QNH
hPa
Press
MSL
hPa
Rain since
9am
mm
Dir  Spd
km/h
Gust
km/h
Spd
kts
Gust
kts
16/11:30pm 33.4 30.1 6.6 19 14.7 SSW 13 13 7 7 1009.2 1008.1 0.0
16/11:00pm 34.3 32.0 7.4 19 15.0 S 9 11 5 6 1009.2 1008.1 0.0
16/10:30pm 34.6 32.7 7.6 19 15.1 S 7 7 4 4 1009.1 1008.0 0.0
16/10:00pm 35.3 34.9 8.2 19 15.4 CALM 0 0 0 0 1009.0 1007.9 0.0
16/09:30pm 36.1 35.6 8.0 18 15.9 CALM 0 0 0 0 1008.8 1007.7 0.0
16/09:00pm 36.7 35.8 7.7 17 16.4 ENE 2 6 1 3 1008.6 1007.5 0.0
16/08:30pm 38.0 37.1 7.8 16 17.2 SSE 2 9 1 5 1008.3 1007.2 0.0
16/08:00pm 38.9 37.4 6.6 14 18.2 SE 4 11 2 6 1008.2 1007.1 0.0
16/07:30pm 39.2 37.1 6.8 14 18.3 E 7 17 4 9 1008.0 1006.9 0.0
16/07:00pm 39.5 36.0 7.1 14 18.5 SE 15 20 8 11 1007.7 1006.6 0.0
16/06:30pm 39.4 35.9 7.0 14 18.4 ESE 15 20 8 11 1007.8 1006.7 0.0
16/06:00pm 39.9 36.8 7.4 14 18.6 ESE 13 19 7 10 1008.0 1006.9 0.0
16/05:30pm 38.9 35.2 4.4 12 18.8 SE 13 20 7 11 1008.2 1007.1 0.0
16/05:00pm 39.1 35.3 5.7 13 18.6 SE 15 26 8 14 1008.4 1007.3 0.0
16/04:30pm 39.8 35.2 3.8 11 19.5 ESE 17 33 9 18 1008.8 1007.7 0.0
16/04:00pm 38.7 33.8 4.2 12 18.7 E 19 28 10 15 1009.1 1008.0 0.0
16/03:30pm 37.8 34.3 3.5 12 18.3 ENE 11 20 6 11 1009.3 1008.2 0.0
16/03:00pm 38.5 34.9 2.8 11 19.0 SE 11 20 6 11 1009.5 1008.4 0.0
16/02:30pm 36.9 33.5 4.0 13 17.6 ENE 11 19 6 10 1010.1 1009.0 0.0
16/02:00pm 37.1 32.4 3.0 12 18.0 SE 17 26 9 14 1010.7 1009.6 0.0
16/01:30pm 36.4 32.3 2.5 12 17.7 ESE 13 22 7 12 1011.0 1009.9 0.0
16/01:00pm 35.3 30.9 0.4 11 17.5 SSE 13 20 7 11 1011.2 1010.1 0.0
16/12:30pm 35.0 30.6 2.5 13 16.8 E 15 24 8 13 1011.4 1010.3 0.0
16/12:00pm 34.2 30.2 4.8 16 15.7 E 15 20 8 11 1011.7 1010.6 0.0
16/11:30am 33.5 29.2 5.1 17 15.2 E 17 28 9 15 1012.0 1010.9 0.0
16/11:00am 32.6 28.1 4.4 17 14.9 E 17 24 9 13 1012.4 1011.3 0.0
16/10:30am 31.4 26.4 3.4 17 14.4 ESE 19 24 10 13 1012.6 1011.5 0.0
16/10:00am 30.0 24.6 1.5 16 14.1 ESE 19 26 10 14 1012.7 1011.6 0.0
16/09:30am 28.7 23.4 2.1 18 13.2 ESE 19 26 10 14 1012.9 1011.8 0.0

Other Formats:

Comma delimited format used in spreadsheet applications
http://www.bom.gov.au/fwo/IDN60801/IDN60801.95699.axf

JavaScript Object Notation format (JSON) in row-major order
http://www.bom.gov.au/fwo/IDN60801/IDN60801.95699.json